Ever Unicorn — 9V7963 — position and weather

sailwx.info

Track history (hours):
 
Tides and Currents Weather Stations Pressure Air Temp Water Temp Dewpoint Dewpoint Depression Visibility Wind Speed Wind Dir Waves Ship Positions

Ever Unicorn

Last reported at 2014-Sep-13 13:22 UTC. Time now 2014-Sep-22 06:17 UTC.
Position N 01°15' E 103°25'.
Warning: this ship's position is 8 days out of date.

Length 285 m; draft 12.7 m.

Type: Ship (hazmat cat D). MMSI: 564995000.

Date/timePositionNaut miles runAvg speedWind from/ knotsBaromVisibWave heightAir tempDewpointWater temp
2014-Sep-13 13:22N 01°15' E 103°25'810.1
2014-Sep-13 12:33N 01°18' E 103°33'4 3.9
2014-Sep-13 11:27N 01°22' E 103°33'0 0.0
2014-Sep-13 09:30N 01°22' E 103°33'0 0.0
2014-Sep-13 08:09N 01°22' E 103°33'22 0.9
2014-Sep-12 08:20N 01°13' E 103°53'1012.8
2014-Sep-12 07:33N 01°16' E 104°03'  
2014-Sep-09 03:21N 22°34' E 114°17'1 0.5
2014-Sep-09 01:25N 22°34' E 114°16'0 0.0
2014-Sep-09 00:31N 22°34' E 114°16'0 0.0
2014-Sep-08 23:13N 22°34' E 114°16'0 0.0
2014-Sep-08 22:25N 22°34' E 114°16'0 0.0
2014-Sep-08 21:13N 22°34' E 114°16'0 0.0
2014-Sep-08 20:31N 22°34' E 114°16'0 0.0
2014-Sep-08 19:31N 22°34' E 114°16'0 0.0
2014-Sep-08 18:32N 22°34' E 114°16'23 2.6
2014-Sep-08 09:33N 22°23' E 113°54'4 4.0
2014-Sep-08 08:31N 22°27' E 113°54'0 0.0
2014-Sep-08 07:28N 22°27' E 113°54'0 0.0
2014-Sep-08 06:31N 22°27' E 113°54'0 0.0
2014-Sep-08 05:25N 22°27' E 113°54'0 0.0
2014-Sep-08 04:28N 22°27' E 113°54'0 0.0
2014-Sep-08 03:25N 22°27' E 113°54'0 0.0
2014-Sep-08 02:31N 22°27' E 113°54'0 0.0
2014-Sep-08 01:31N 22°27' E 113°54'0 0.0
2014-Sep-08 00:19N 22°27' E 113°54'0 0.0
2014-Sep-07 23:25N 22°27' E 113°54'0 0.0
2014-Sep-07 22:31N 22°27' E 113°54'0 0.0
2014-Sep-07 21:22N 22°27' E 113°54'0 0.0
2014-Sep-07 20:31N 22°27' E 113°54'0 0.0
2014-Sep-07 19:33N 22°27' E 113°54'4 3.8
2014-Sep-07 18:33N 22°23' E 113°54'12 9.7
2014-Sep-07 17:18N 22°18' E 114°06'30817.4
2014-Sep-06 23:33N 22°31' E 119°39'2019.7
2014-Sep-06 22:34N 22°32' E 120°00'1616.3
2014-Sep-06 21:33N 22°33' E 120°18'1 1.2
2014-Sep-06 20:30N 22°33' E 120°19'0 0.0
2014-Sep-06 19:30N 22°33' E 120°19'0 0.0
2014-Sep-06 18:18N 22°33' E 120°19'0 0.0
2014-Sep-06 17:18N 22°33' E 120°19'0 0.1
2014-Sep-06 16:30N 22°33' E 120°19'0 0.1
2014-Sep-06 15:30N 22°33' E 120°19'0 0.0
2014-Sep-06 14:30N 22°33' E 120°19'0 0.0
2014-Sep-06 12:33N 22°33' E 120°19'0 0.0
2014-Sep-06 11:33N 22°33' E 120°19'1 0.8
2014-Sep-06 10:33N 22°34' E 120°19'0 0.1
2014-Sep-06 09:33N 22°34' E 120°19'0 0.0
2014-Sep-06 08:33N 22°34' E 120°19'0 0.0
2014-Sep-06 07:33N 22°34' E 120°19'0 0.0
2014-Sep-06 06:33N 22°34' E 120°19'0 0.0
2014-Sep-06 05:33N 22°34' E 120°19'0 0.0
2014-Sep-06 04:33N 22°34' E 120°19'0 0.0
2014-Sep-06 03:33N 22°34' E 120°19'0 0.0
2014-Sep-06 02:33N 22°34' E 120°19'0 0.0
2014-Sep-06 01:33N 22°34' E 120°19'0 0.1
2014-Sep-06 00:33N 22°34' E 120°19'0 0.1
2014-Sep-05 23:33N 22°34' E 120°19'0 0.0
2014-Sep-05 22:33N 22°34' E 120°19'0 0.0
2014-Sep-05 21:33N 22°34' E 120°19'0 0.0
2014-Sep-05 20:33N 22°34' E 120°19'3 3.4
2014-Sep-05 19:33N 22°32' E 120°16'6 6.5
2014-Sep-05 18:33N 22°34' E 120°09'1 1.0
2014-Sep-05 17:33N 22°34' E 120°08'1 0.6
2014-Sep-05 16:33N 22°35' E 120°08'9 8.7
2014-Sep-05 15:33N 22°43' E 120°05'1514.4
2014-Sep-05 14:31N 22°54' E 119°55'40617.0
2014-Sep-04 14:33N 29°16' E 122°32'2019.6
2014-Sep-04 13:33N 29°36' E 122°29'1414.3
2014-Sep-04 12:32N 29°46' E 122°17'1212.1
2014-Sep-04 11:33N 29°55' E 122°09'5 2.2
2014-Sep-04 09:06N 29°53' E 122°03'0 0.0
2014-Sep-04 07:06N 29°53' E 122°03'0 0.0
2014-Sep-04 06:24N 29°53' E 122°03'0 0.0
2014-Sep-04 05:30N 29°53' E 122°03'0 0.0
2014-Sep-04 04:30N 29°53' E 122°03'0 0.0
2014-Sep-04 01:30N 29°53' E 122°03'0 0.0
2014-Sep-04 00:24N 29°53' E 122°03'0 0.0
2014-Sep-03 23:12N 29°53' E 122°03'0 0.0
2014-Sep-03 22:12N 29°53' E 122°03'0 0.0
2014-Sep-03 21:12N 29°53' E 122°03'0 0.0
2014-Sep-03 20:24N 29°53' E 122°03'0 0.0
2014-Sep-03 19:18N 29°53' E 122°03'0 0.0
2014-Sep-03 18:24N 29°53' E 122°03'0 0.0
2014-Sep-03 17:18N 29°53' E 122°03'0 0.0
2014-Sep-03 16:24N 29°53' E 122°03'0 0.0
2014-Sep-03 14:18N 29°53' E 122°03'0 0.0
2014-Sep-03 13:24N 29°53' E 122°03'  
Track history (hours):
 
Tides and Currents Weather Stations Pressure Air Temp Water Temp Dewpoint Dewpoint Depression Visibility Wind Speed Wind Dir Waves Ship Positions

Ever Unicorn

Last reported at 2014-Sep-13 13:22 UTC. Time now 2014-Sep-22 06:17 UTC.
Position N 01°15' E 103°25'.
Warning: this ship's position is 8 days out of date.

Length 285 m; draft 12.7 m.

Type: Ship (hazmat cat D). MMSI: 564995000.

Date/timePositionNaut miles runAvg speedWind from/ knotsBaromVisibWave heightAir tempDewpointWater temp
2014-Sep-13 13:22N 01°15' E 103°25'810.1
2014-Sep-13 12:33N 01°18' E 103°33'4 3.9
2014-Sep-13 11:27N 01°22' E 103°33'0 0.0
2014-Sep-13 09:30N 01°22' E 103°33'0 0.0
2014-Sep-13 08:09N 01°22' E 103°33'22 0.9
2014-Sep-12 08:20N 01°13' E 103°53'1012.8
2014-Sep-12 07:33N 01°16' E 104°03'  
2014-Sep-09 03:21N 22°34' E 114°17'1 0.5
2014-Sep-09 01:25N 22°34' E 114°16'0 0.0
2014-Sep-09 00:31N 22°34' E 114°16'0 0.0
2014-Sep-08 23:13N 22°34' E 114°16'0 0.0
2014-Sep-08 22:25N 22°34' E 114°16'0 0.0
2014-Sep-08 21:13N 22°34' E 114°16'0 0.0
2014-Sep-08 20:31N 22°34' E 114°16'0 0.0
2014-Sep-08 19:31N 22°34' E 114°16'0 0.0
2014-Sep-08 18:32N 22°34' E 114°16'23 2.6
2014-Sep-08 09:33N 22°23' E 113°54'4 4.0
2014-Sep-08 08:31N 22°27' E 113°54'0 0.0
2014-Sep-08 07:28N 22°27' E 113°54'0 0.0
2014-Sep-08 06:31N 22°27' E 113°54'0 0.0
2014-Sep-08 05:25N 22°27' E 113°54'0 0.0
2014-Sep-08 04:28N 22°27' E 113°54'0 0.0
2014-Sep-08 03:25N 22°27' E 113°54'0 0.0
2014-Sep-08 02:31N 22°27' E 113°54'0 0.0
2014-Sep-08 01:31N 22°27' E 113°54'0 0.0
2014-Sep-08 00:19N 22°27' E 113°54'0 0.0
2014-Sep-07 23:25N 22°27' E 113°54'0 0.0
2014-Sep-07 22:31N 22°27' E 113°54'0 0.0
2014-Sep-07 21:22N 22°27' E 113°54'0 0.0
2014-Sep-07 20:31N 22°27' E 113°54'0 0.0
2014-Sep-07 19:33N 22°27' E 113°54'4 3.8
2014-Sep-07 18:33N 22°23' E 113°54'12 9.7
2014-Sep-07 17:18N 22°18' E 114°06'30817.4
2014-Sep-06 23:33N 22°31' E 119°39'2019.7
2014-Sep-06 22:34N 22°32' E 120°00'1616.3
2014-Sep-06 21:33N 22°33' E 120°18'1 1.2
2014-Sep-06 20:30N 22°33' E 120°19'0 0.0
2014-Sep-06 19:30N 22°33' E 120°19'0 0.0
2014-Sep-06 18:18N 22°33' E 120°19'0 0.0
2014-Sep-06 17:18N 22°33' E 120°19'0 0.1
2014-Sep-06 16:30N 22°33' E 120°19'0 0.1
2014-Sep-06 15:30N 22°33' E 120°19'0 0.0
2014-Sep-06 14:30N 22°33' E 120°19'0 0.0
2014-Sep-06 12:33N 22°33' E 120°19'0 0.0
2014-Sep-06 11:33N 22°33' E 120°19'1 0.8
2014-Sep-06 10:33N 22°34' E 120°19'0 0.1
2014-Sep-06 09:33N 22°34' E 120°19'0 0.0
2014-Sep-06 08:33N 22°34' E 120°19'0 0.0
2014-Sep-06 07:33N 22°34' E 120°19'0 0.0
2014-Sep-06 06:33N 22°34' E 120°19'0 0.0
2014-Sep-06 05:33N 22°34' E 120°19'0 0.0
2014-Sep-06 04:33N 22°34' E 120°19'0 0.0
2014-Sep-06 03:33N 22°34' E 120°19'0 0.0
2014-Sep-06 02:33N 22°34' E 120°19'0 0.0
2014-Sep-06 01:33N 22°34' E 120°19'0 0.1
2014-Sep-06 00:33N 22°34' E 120°19'0 0.1
2014-Sep-05 23:33N 22°34' E 120°19'0 0.0
2014-Sep-05 22:33N 22°34' E 120°19'0 0.0
2014-Sep-05 21:33N 22°34' E 120°19'0 0.0
2014-Sep-05 20:33N 22°34' E 120°19'3 3.4
2014-Sep-05 19:33N 22°32' E 120°16'6 6.5
2014-Sep-05 18:33N 22°34' E 120°09'1 1.0
2014-Sep-05 17:33N 22°34' E 120°08'1 0.6
2014-Sep-05 16:33N 22°35' E 120°08'9 8.7
2014-Sep-05 15:33N 22°43' E 120°05'1514.4
2014-Sep-05 14:31N 22°54' E 119°55'40617.0
2014-Sep-04 14:33N 29°16' E 122°32'2019.6
2014-Sep-04 13:33N 29°36' E 122°29'1414.3
2014-Sep-04 12:32N 29°46' E 122°17'1212.1
2014-Sep-04 11:33N 29°55' E 122°09'5 2.2
2014-Sep-04 09:06N 29°53' E 122°03'0 0.0
2014-Sep-04 07:06N 29°53' E 122°03'0 0.0
2014-Sep-04 06:24N 29°53' E 122°03'0 0.0
2014-Sep-04 05:30N 29°53' E 122°03'0 0.0
2014-Sep-04 04:30N 29°53' E 122°03'0 0.0
2014-Sep-04 01:30N 29°53' E 122°03'0 0.0
2014-Sep-04 00:24N 29°53' E 122°03'0 0.0
2014-Sep-03 23:12N 29°53' E 122°03'0 0.0
2014-Sep-03 22:12N 29°53' E 122°03'0 0.0
2014-Sep-03 21:12N 29°53' E 122°03'0 0.0
2014-Sep-03 20:24N 29°53' E 122°03'0 0.0
2014-Sep-03 19:18N 29°53' E 122°03'0 0.0
2014-Sep-03 18:24N 29°53' E 122°03'0 0.0
2014-Sep-03 17:18N 29°53' E 122°03'0 0.0
2014-Sep-03 16:24N 29°53' E 122°03'0 0.0
2014-Sep-03 14:18N 29°53' E 122°03'0 0.0
2014-Sep-03 13:24N 29°53' E 122°03'  

Dump ship's entire track history